Time;durP1;ratioP1;P1;durP2;ratioP2;P2;SDS_P1;SDS_P2;PMS_P1;PMS_P2;Temp;Humidity;BMP_temperature;BMP_pressure;BME280_temperature;BME280_humidity;BME280_pressure;Samples;Min_cycle;Max_cycle;Signal;HPM_P1;HPM_P2
2023/07/03 00:00:06;;;;;;;3.00;2.70;;;;;;;25.00;50.84;99349.90;105721;1254;61329;-72
2023/07/03 00:02:36;;;;;;;3.00;2.70;;;;;;;25.02;50.85;99347.42;105830;1253;63925;-73
2023/07/03 00:05:03;;;;;;;3.10;2.80;;;;;;;25.04;50.64;99350.38;105808;1255;61136;-72
2023/07/03 00:07:30;;;;;;;3.30;2.90;;;;;;;25.02;50.64;99344.34;105786;1254;61253;-73
2023/07/03 00:09:57;;;;;;;3.30;2.90;;;;;;;24.99;50.78;99344.80;105720;1257;65824;-72
2023/07/03 00:12:24;;;;;;;3.40;2.70;;;;;;;24.97;50.75;99340.10;105780;1254;61315;-72
2023/07/03 00:14:51;;;;;;;3.90;2.80;;;;;;;24.96;50.80;99337.92;105719;1258;63722;-72
2023/07/03 00:17:18;;;;;;;3.10;2.80;;;;;;;24.94;50.81;99331.40;105777;1254;61336;-73
2023/07/03 00:19:45;;;;;;;3.00;2.70;;;;;;;24.95;50.82;99333.05;105808;1254;61221;-73
2023/07/03 00:22:11;;;;;;;3.10;2.60;;;;;;;24.93;50.99;99335.00;105936;1256;65715;-73
2023/07/03 00:24:38;;;;;;;3.90;2.70;;;;;;;24.91;50.91;99333.02;105815;1254;61337;-72
2023/07/03 00:27:05;;;;;;;3.20;2.60;;;;;;;24.87;50.87;99331.16;105742;1257;62625;-73
2023/07/03 00:29:33;;;;;;;3.50;3.00;;;;;;;24.85;51.02;99327.44;105764;1254;61303;-73
2023/07/03 00:32:00;;;;;;;5.90;2.80;;;;;;;24.83;51.10;99326.94;105782;1254;61225;-74
2023/07/03 00:34:27;;;;;;;3.50;3.00;;;;;;;24.82;51.25;99331.29;105940;1254;65707;-75
2023/07/03 00:36:54;;;;;;;3.50;3.10;;;;;;;24.82;51.39;99328.16;107262;1253;61189;-72
2023/07/03 00:39:21;;;;;;;3.50;2.80;;;;;;;24.83;51.38;99330.27;107555;1254;62725;-73
2023/07/03 00:41:47;;;;;;;3.30;2.80;;;;;;;24.81;51.30;99331.38;106192;1255;61318;-72
2023/07/03 00:44:16;;;;;;;3.30;3.00;;;;;;;24.80;51.32;99334.81;106714;1253;61183;-73
2023/07/03 00:46:45;;;;;;;3.30;2.80;;;;;;;24.78;51.60;99335.19;106326;1256;66146;-72
2023/07/03 00:49:11;;;;;;;3.40;2.80;;;;;;;24.74;51.76;99337.11;105698;1261;61304;-73
2023/07/03 00:51:40;;;;;;;3.00;2.60;;;;;;;24.71;52.06;99339.70;105819;1254;64118;-72
2023/07/03 00:54:07;;;;;;;3.40;3.00;;;;;;;24.68;52.07;99339.14;105696;1255;61406;-72
2023/07/03 00:56:34;;;;;;;4.60;3.20;;;;;;;24.67;52.11;99336.95;105742;1255;61255;-72
2023/07/03 00:59:02;;;;;;;3.90;3.20;;;;;;;24.65;52.42;99339.09;105779;1256;65810;-73
2023/07/03 01:01:53;;;;;;;4.50;3.20;;;;;;;24.62;52.79;99342.20;106002;1256;61310;-73
2023/07/03 01:04:26;;;;;;;3.20;2.90;;;;;;;24.55;53.39;99343.42;105799;1257;63915;-73
2023/07/03 01:06:56;;;;;;;6.80;3.60;;;;;;;24.50;53.41;99350.60;105629;1260;61372;-72
2023/07/03 01:09:29;;;;;;;5.90;3.80;;;;;;;24.48;53.40;99359.42;105881;1257;61203;-72
2023/07/03 01:11:57;;;;;;;3.70;3.40;;;;;;;24.47;53.49;99363.21;105854;1257;65927;-72
2023/07/03 01:14:23;;;;;;;3.20;2.90;;;;;;;24.46;53.76;99367.35;105630;1259;61250;-72
2023/07/03 01:16:50;;;;;;;3.80;3.30;;;;;;;24.44;53.84;99370.13;105680;1252;63765;-72
2023/07/03 01:19:21;;;;;;;7.50;3.20;;;;;;;24.43;54.06;99370.33;105673;1254;61843;-72
2023/07/03 01:21:56;;;;;;;4.00;3.30;;;;;;;24.42;54.00;99378.72;105633;1254;61272;-72
2023/07/03 01:24:32;;;;;;;3.30;3.00;;;;;;;24.38;53.87;99382.89;105696;1254;65818;-72
2023/07/03 01:27:01;;;;;;;3.50;3.00;;;;;;;24.36;53.80;99391.16;105847;1255;61253;-72
2023/07/03 01:29:28;;;;;;;4.20;3.30;;;;;;;24.35;53.87;99397.99;105698;1254;64331;-72
2023/07/03 01:31:55;;;;;;;4.10;3.20;;;;;;;24.33;53.90;99401.02;105681;1254;61455;-74
2023/07/03 01:34:23;;;;;;;6.80;3.20;;;;;;;24.29;53.91;99400.27;105893;1257;61263;-74
2023/07/03 01:36:50;;;;;;;3.40;3.10;;;;;;;24.26;54.10;99397.66;105695;1259;66057;-73
2023/07/03 01:39:17;;;;;;;6.10;3.50;;;;;;;24.25;54.00;99405.13;105700;1254;61231;-73
2023/07/03 01:41:44;;;;;;;5.20;3.30;;;;;;;24.23;53.93;99419.34;105741;1254;63685;-73
2023/07/03 01:44:11;;;;;;;3.50;3.20;;;;;;;24.22;54.17;99430.95;105699;1255;61433;-71
2023/07/03 01:46:38;;;;;;;6.10;3.50;;;;;;;24.19;54.34;99428.40;105755;1254;61708;-72
2023/07/03 01:49:11;;;;;;;3.80;3.40;;;;;;;24.19;54.41;99420.29;105793;1259;65673;-72
2023/07/03 01:52:11;;;;;;;5.20;3.50;;;;;;;24.19;54.38;99427.05;105760;1254;61340;-74
2023/07/03 01:54:53;;;;;;;4.00;3.50;;;;;;;24.18;54.18;99430.48;105963;1254;63862;-74
2023/07/03 01:57:40;;;;;;;3.70;3.30;;;;;;;24.16;54.25;99430.44;105831;1253;61285;-74
2023/07/03 02:00:09;;;;;;;4.80;3.70;;;;;;;24.15;54.02;99428.73;105773;1254;61355;-75
2023/07/03 02:02:40;;;;;;;4.50;3.90;;;;;;;24.14;53.92;99428.06;105480;1260;65857;-75
2023/07/03 02:05:10;;;;;;;3.60;3.30;;;;;;;24.12;53.78;99432.55;105835;1254;61641;-74
2023/07/03 02:07:37;;;;;;;3.40;3.10;;;;;;;24.12;53.82;99435.05;105830;1254;62778;-75
2023/07/03 02:10:04;;;;;;;3.70;3.20;;;;;;;24.14;53.85;99436.72;105904;1254;61221;-71
2023/07/03 02:12:32;;;;;;;3.40;3.00;;;;;;;24.13;54.05;99446.41;105781;1254;61251;-74
2023/07/03 02:15:00;;;;;;;4.10;3.20;;;;;;;24.13;54.10;99443.52;105548;1257;65842;-73
2023/07/03 02:17:27;;;;;;;3.50;3.10;;;;;;;24.11;54.15;99445.19;105580;1258;61320;-78
2023/07/03 02:19:54;;;;;;;3.60;3.30;;;;;;;24.12;54.28;99444.97;105821;1254;64006;-73
2023/07/03 02:22:21;;;;;;;4.50;3.40;;;;;;;24.15;54.43;99446.05;105842;1254;61444;-74
2023/07/03 02:24:49;;;;;;;3.50;3.20;;;;;;;24.16;54.32;99442.80;105806;1254;61345;-77
2023/07/03 02:27:15;;;;;;;3.60;3.20;;;;;;;24.16;54.43;99441.55;105907;1254;65826;-75
2023/07/03 02:29:42;;;;;;;3.60;3.30;;;;;;;24.17;54.62;99445.39;105969;1254;61284;-73
2023/07/03 02:32:09;;;;;;;3.90;3.50;;;;;;;24.16;54.68;99449.27;105709;1258;61333;-73
2023/07/03 02:34:36;;;;;;;4.20;3.20;;;;;;;24.16;54.70;99451.48;105709;1254;61340;-73
2023/07/03 02:37:04;;;;;;;5.20;3.40;;;;;;;24.14;54.68;99456.68;105840;1254;61918;-72
2023/07/03 02:39:31;;;;;;;4.80;3.80;;;;;;;24.14;54.68;99458.89;105793;1257;65803;-72
2023/07/03 02:41:58;;;;;;;5.40;4.30;;;;;;;24.13;54.73;99458.08;105793;1254;61391;-72
2023/07/03 02:44:25;;;;;;;6.40;4.00;;;;;;;24.13;54.91;99460.73;105644;1257;63987;-72
2023/07/03 02:46:51;;;;;;;5.50;4.30;;;;;;;24.11;54.94;99461.27;105802;1254;61228;-78
2023/07/03 02:49:18;;;;;;;5.60;3.80;;;;;;;24.11;55.06;99462.52;105781;1255;61231;-77
2023/07/03 02:51:46;;;;;;;6.20;4.00;;;;;;;24.09;55.04;99466.94;105947;1256;65999;-74
2023/07/03 02:54:13;;;;;;;3.80;3.40;;;;;;;24.06;55.11;99470.81;106067;1254;61221;-78
2023/07/03 02:56:40;;;;;;;3.70;3.30;;;;;;;24.04;55.16;99475.08;105845;1257;63917;-73
2023/07/03 02:59:07;;;;;;;4.90;3.60;;;;;;;24.05;55.37;99481.58;105666;1254;61807;-77
2023/07/03 03:01:36;;;;;;;4.70;3.60;;;;;;;24.07;55.31;99485.85;105947;1255;61336;-73
2023/07/03 03:04:03;;;;;;;3.90;3.50;;;;;;;24.09;55.33;99487.40;105950;1254;65855;-73
2023/07/03 03:06:31;;;;;;;5.40;3.40;;;;;;;24.09;55.48;99484.48;105795;1256;61216;-75
2023/07/03 03:08:58;;;;;;;5.40;3.60;;;;;;;24.10;55.55;99488.33;105852;1254;63828;-77
2023/07/03 03:11:25;;;;;;;5.60;3.70;;;;;;;24.11;55.48;99487.98;106064;1252;62837;-74
2023/07/03 03:13:53;;;;;;;6.10;4.00;;;;;;;24.11;55.59;99488.14;106052;1254;61320;-75
2023/07/03 03:16:20;;;;;;;4.20;3.60;;;;;;;24.13;55.37;99486.84;105780;1258;65973;-74
2023/07/03 03:18:47;;;;;;;3.60;3.20;;;;;;;24.17;55.25;99485.45;105809;1254;61276;-75
2023/07/03 03:21:15;;;;;;;3.70;3.40;;;;;;;24.20;55.13;99488.47;105912;1257;64051;-75
2023/07/03 03:23:43;;;;;;;4.30;3.40;;;;;;;24.20;55.08;99493.07;106088;1254;61284;-74
2023/07/03 03:26:09;;;;;;;4.40;3.70;;;;;;;24.19;55.05;99492.46;106006;1254;61777;-72
2023/07/03 03:28:36;;;;;;;3.80;3.40;;;;;;;24.22;54.98;99496.09;106075;1254;66239;-73
2023/07/03 03:31:03;;;;;;;3.80;3.40;;;;;;;24.23;54.94;99497.89;105720;1253;61339;-72
2023/07/03 03:33:31;;;;;;;3.50;3.20;;;;;;;24.21;54.91;99499.90;105726;1259;63987;-73
2023/07/03 03:35:58;;;;;;;4.40;3.60;;;;;;;24.22;54.87;99498.32;105958;1254;61247;-73
2023/07/03 03:38:25;;;;;;;7.50;3.90;;;;;;;24.25;54.91;99501.36;105944;1257;61138;-74
2023/07/03 03:40:58;;;;;;;4.00;3.50;;;;;;;24.23;55.00;99503.45;105788;1254;64658;-73
2023/07/03 03:43:29;;;;;;;4.90;3.80;;;;;;;24.20;55.08;99509.30;105910;1254;61272;-73
2023/07/03 03:45:58;;;;;;;4.80;4.00;;;;;;;24.18;55.11;99512.19;105952;1254;64014;-72
2023/07/03 03:48:26;;;;;;;5.50;3.90;;;;;;;24.16;55.19;99517.59;105718;1259;61329;-72
2023/07/03 03:50:53;;;;;;;4.70;4.00;;;;;;;24.13;55.27;99512.86;105676;1254;61256;-74
2023/07/03 03:53:20;;;;;;;3.90;3.60;;;;;;;24.14;55.49;99514.89;105985;1256;66162;-73
2023/07/03 03:55:50;;;;;;;4.40;4.00;;;;;;;24.15;55.48;99513.89;105851;1254;61409;-72
2023/07/03 03:58:18;;;;;;;4.40;4.00;;;;;;;24.14;55.61;99512.73;106559;1254;62492;-72
2023/07/03 04:00:45;;;;;;;4.50;4.10;;;;;;;24.13;55.62;99517.56;105715;1254;61278;-72
2023/07/03 04:03:12;;;;;;;4.80;4.30;;;;;;;24.10;55.74;99523.70;105782;1253;61323;-72
2023/07/03 04:05:40;;;;;;;4.20;3.80;;;;;;;24.11;55.80;99529.86;105756;1255;66159;-73
2023/07/03 04:08:07;;;;;;;4.70;4.20;;;;;;;24.14;56.07;99533.23;105818;1254;61359;-73
2023/07/03 04:10:34;;;;;;;5.60;4.10;;;;;;;24.16;56.26;99530.42;105926;1253;64115;-75
2023/07/03 04:13:01;;;;;;;4.20;3.80;;;;;;;24.22;56.31;99534.73;105839;1253;61307;-74
2023/07/03 04:15:30;;;;;;;5.40;4.40;;;;;;;24.26;56.31;99537.45;106209;1254;61426;-72
2023/07/03 04:17:57;;;;;;;5.70;4.30;;;;;;;24.34;56.21;99541.05;106044;1253;65894;-73
2023/07/03 04:20:25;;;;;;;4.30;3.80;;;;;;;24.42;56.17;99546.40;106268;1253;61231;-73
2023/07/03 04:22:52;;;;;;;5.30;3.80;;;;;;;24.55;55.95;99550.96;106242;1254;64049;-73
2023/07/03 04:25:19;;;;;;;4.10;3.70;;;;;;;24.65;55.51;99558.77;105823;1254;61307;-72
2023/07/03 04:27:46;;;;;;;5.10;4.00;;;;;;;24.76;55.22;99557.80;105841;1254;61256;-73
2023/07/03 04:30:13;;;;;;;5.40;4.10;;;;;;;24.86;54.79;99556.30;105897;1254;66104;-73
2023/07/03 04:32:40;;;;;;;4.50;3.80;;;;;;;24.93;54.22;99557.27;105956;1254;61260;-73
2023/07/03 04:35:08;;;;;;;4.30;3.90;;;;;;;24.99;54.14;99560.67;105694;1254;63986;-74
2023/07/03 04:37:36;;;;;;;3.80;3.40;;;;;;;25.06;53.72;99563.23;105667;1256;62687;-74
2023/07/03 04:40:04;;;;;;;5.20;3.50;;;;;;;25.13;53.37;99563.74;105677;1254;61211;-73
2023/07/03 04:42:31;;;;;;;3.80;3.40;;;;;;;25.20;52.97;99563.96;105738;1253;66044;-74
2023/07/03 04:45:00;;;;;;;7.20;3.60;;;;;;;25.23;52.69;99566.14;105954;1254;61256;-72
2023/07/03 04:47:26;;;;;;;4.30;3.50;;;;;;;25.22;52.53;99571.02;105844;1257;63853;-73
2023/07/03 04:49:55;;;;;;;3.90;3.30;;;;;;;25.22;52.60;99570.56;105880;1254;61308;-72
2023/07/03 04:52:23;;;;;;;4.60;3.70;;;;;;;25.26;52.63;99570.84;106080;1252;61266;-73
2023/07/03 04:54:49;;;;;;;6.50;3.50;;;;;;;25.32;52.48;99572.81;105777;1259;65903;-73
2023/07/03 04:57:16;;;;;;;6.30;3.50;;;;;;;25.38;52.44;99576.61;105941;1254;61319;-73
2023/07/03 04:59:43;;;;;;;3.60;3.20;;;;;;;25.40;52.66;99578.57;105780;1254;63813;-74
2023/07/03 05:02:12;;;;;;;4.20;3.20;;;;;;;25.47;52.52;99583.63;105975;1254;61361;-73
2023/07/03 05:04:39;;;;;;;4.40;3.20;;;;;;;25.55;52.35;99588.13;105761;1254;61352;-73
2023/07/03 05:07:05;;;;;;;4.80;3.20;;;;;;;25.58;51.96;99590.25;105657;1252;66110;-73
2023/07/03 05:09:33;;;;;;;3.50;3.20;;;;;;;25.57;51.77;99591.29;105695;1254;61278;-72
2023/07/03 05:12:00;;;;;;;3.80;3.30;;;;;;;25.60;51.79;99593.27;105808;1257;64117;-72
2023/07/03 05:14:27;;;;;;;4.80;3.60;;;;;;;25.64;51.73;99593.98;105986;1256;61323;-73
2023/07/03 05:16:54;;;;;;;4.30;3.50;;;;;;;25.71;51.43;99593.19;105866;1254;61359;-72
2023/07/03 05:19:21;;;;;;;4.40;3.70;;;;;;;25.75;51.04;99592.61;105801;1256;61632;-72
2023/07/03 05:21:48;;;;;;;6.70;4.00;;;;;;;25.78;51.04;99595.77;105841;1253;61249;-72
2023/07/03 05:24:14;;;;;;;4.20;3.80;;;;;;;25.79;50.88;99600.79;105743;1254;64140;-73
2023/07/03 05:26:41;;;;;;;6.90;3.70;;;;;;;25.79;50.80;99603.21;105688;1254;61329;-71
2023/07/03 05:29:08;;;;;;;10.70;5.10;;;;;;;25.79;50.83;99604.19;105783;1254;61189;-73
2023/07/03 05:31:36;;;;;;;7.70;5.20;;;;;;;25.82;50.81;99606.18;105887;1252;65809;-73
2023/07/03 05:34:03;;;;;;;8.80;4.60;;;;;;;25.86;50.89;99610.38;105702;1252;61321;-73
2023/07/03 05:36:30;;;;;;;5.00;3.90;;;;;;;25.92;51.04;99611.58;105782;1253;64024;-72
2023/07/03 05:38:58;;;;;;;4.60;4.00;;;;;;;25.97;51.06;99615.84;105766;1256;61327;-73
2023/07/03 05:41:25;;;;;;;10.00;4.80;;;;;;;26.01;50.88;99618.95;105996;1257;61257;-73
2023/07/03 05:43:52;;;;;;;5.20;3.90;;;;;;;26.03;50.52;99625.04;105859;1256;65863;-73
2023/07/03 05:46:19;;;;;;;4.70;4.00;;;;;;;26.03;50.45;99626.62;105861;1254;61326;-73
2023/07/03 05:48:49;;;;;;;10.30;4.50;;;;;;;26.04;50.40;99627.27;105873;1256;72834;-73
2023/07/03 05:51:17;;;;;;;4.70;4.00;;;;;;;26.05;50.59;99629.37;105653;1257;61202;-73
2023/07/03 05:53:44;;;;;;;4.30;3.90;;;;;;;26.08;50.41;99635.00;105769;1252;61362;-73
2023/07/03 05:56:12;;;;;;;5.70;4.00;;;;;;;26.07;50.32;99636.51;105864;1252;65801;-73
2023/07/03 05:58:39;;;;;;;4.50;4.00;;;;;;;26.07;50.25;99636.95;105808;1253;61361;-72
2023/07/03 06:01:06;;;;;;;5.10;4.00;;;;;;;26.08;50.19;99636.26;105850;1254;63803;-73
2023/07/03 06:03:35;;;;;;;3.80;3.40;;;;;;;26.11;50.27;99641.81;105749;1256;61375;-74
2023/07/03 06:06:04;;;;;;;6.20;4.10;;;;;;;26.18;50.34;99641.58;105699;1254;61241;-71
2023/07/03 06:08:31;;;;;;;4.20;3.80;;;;;;;26.24;49.98;99642.61;105658;1256;66904;-72
2023/07/03 06:10:58;;;;;;;4.60;3.90;;;;;;;26.27;49.86;99649.45;105720;1254;61377;-72
2023/07/03 06:13:25;;;;;;;5.40;3.90;;;;;;;26.29;49.77;99649.09;105727;1254;64076;-72
2023/07/03 06:15:51;;;;;;;5.20;3.90;;;;;;;26.35;49.86;99650.02;105681;1254;61440;-72
2023/07/03 06:18:18;;;;;;;4.90;4.10;;;;;;;26.44;50.00;99645.50;105765;1254;61349;-73
2023/07/03 06:20:45;;;;;;;11.10;4.60;;;;;;;26.55;50.01;99650.41;105927;1254;61220;-73
2023/07/03 06:23:12;;;;;;;7.20;4.30;;;;;;;26.64;50.12;99657.35;105854;1254;61368;-73
2023/07/03 06:25:40;;;;;;;8.90;4.40;;;;;;;26.71;50.20;99658.98;105656;1254;64023;-72
2023/07/03 06:28:07;;;;;;;5.90;4.20;;;;;;;26.75;50.35;99662.69;105864;1258;61215;-73
2023/07/03 06:30:35;;;;;;;7.40;3.50;;;;;;;26.79;50.46;99661.30;105708;1254;61248;-73
2023/07/03 06:33:02;;;;;;;7.80;4.20;;;;;;;26.86;50.58;99662.05;105864;1256;65882;-72
2023/07/03 06:35:29;;;;;;;7.50;4.60;;;;;;;26.91;50.46;99662.47;105899;1254;61269;-71
2023/07/03 06:37:58;;;;;;;9.80;4.70;;;;;;;26.97;50.52;99665.11;105891;1256;63925;-72
2023/07/03 06:40:26;;;;;;;7.50;4.50;;;;;;;27.07;50.31;99665.67;105540;1257;61269;-71
2023/07/03 06:42:53;;;;;;;4.90;3.80;;;;;;;27.13;50.21;99669.09;105827;1253;61262;-70
2023/07/03 06:45:20;;;;;;;5.30;4.60;;;;;;;27.21;49.72;99671.80;105806;1258;66030;-72
2023/07/03 06:47:47;;;;;;;4.50;4.00;;;;;;;27.29;49.53;99674.27;105716;1254;61381;-72
2023/07/03 06:50:13;;;;;;;4.80;4.10;;;;;;;27.41;48.82;99679.05;105921;1254;63833;-73
2023/07/03 06:52:41;;;;;;;4.80;4.00;;;;;;;27.51;48.35;99682.13;105835;1253;61263;-73
2023/07/03 06:55:08;;;;;;;5.00;4.00;;;;;;;27.57;48.15;99687.33;105834;1253;61260;-73
2023/07/03 06:57:34;;;;;;;6.10;3.90;;;;;;;27.68;48.11;99686.17;105763;1253;64489;-73
2023/07/03 07:00:02;;;;;;;4.30;3.90;;;;;;;27.79;47.78;99684.08;105716;1253;61337;-72
2023/07/03 07:02:30;;;;;;;4.50;4.00;;;;;;;27.85;47.29;99687.09;105521;1259;160417;-72
2023/07/03 07:04:56;;;;;;;4.50;4.10;;;;;;;27.86;47.17;99688.89;105714;1254;61332;-72
2023/07/03 07:07:26;;;;;;;4.20;3.80;;;;;;;27.88;46.76;99689.84;105860;1252;61237;-74
2023/07/03 07:09:53;;;;;;;4.80;3.80;;;;;;;27.86;46.50;99692.62;106018;1256;66462;-74
2023/07/03 07:12:21;;;;;;;5.20;3.60;;;;;;;27.83;46.64;99694.17;105993;1254;61347;-73
2023/07/03 07:14:48;;;;;;;4.30;3.70;;;;;;;27.84;46.49;99695.20;105869;1254;63874;-73
2023/07/03 07:17:17;;;;;;;5.10;3.90;;;;;;;27.82;46.39;99696.43;106022;1254;61425;-74
2023/07/03 07:19:43;;;;;;;3.60;3.30;;;;;;;27.81;46.24;99699.63;105972;1254;61362;-72
2023/07/03 07:22:10;;;;;;;3.50;3.20;;;;;;;27.82;46.26;99698.72;105885;1252;61322;-73
2023/07/03 07:24:36;;;;;;;4.60;3.50;;;;;;;27.84;46.01;99702.00;105876;1256;61187;-73
2023/07/03 07:27:04;;;;;;;3.90;3.10;;;;;;;27.84;45.93;99700.96;105819;1256;63995;-73
2023/07/03 07:29:32;;;;;;;3.70;3.40;;;;;;;27.87;45.99;99707.24;105760;1253;61288;-72
2023/07/03 07:31:59;;;;;;;5.50;3.40;;;;;;;27.96;46.06;99706.64;105676;1253;61288;-72
2023/07/03 07:34:26;;;;;;;5.20;3.60;;;;;;;28.05;46.04;99711.38;105849;1256;65882;-73
2023/07/03 07:36:52;;;;;;;3.50;3.20;;;;;;;28.18;45.82;99714.81;105764;1254;61348;-72
2023/07/03 07:39:19;;;;;;;6.20;3.20;;;;;;;28.28;45.51;99709.79;105762;1254;63822;-72
2023/07/03 07:41:46;;;;;;;4.60;3.40;;;;;;;28.35;45.38;99707.86;105891;1254;61342;-72
2023/07/03 07:44:13;;;;;;;3.50;2.90;;;;;;;28.45;45.08;99709.66;105641;1254;61260;-73
2023/07/03 07:46:41;;;;;;;4.00;2.70;;;;;;;28.52;44.45;99715.05;105744;1255;66012;-73
2023/07/03 07:49:09;;;;;;;3.40;3.00;;;;;;;28.56;44.10;99715.85;105667;1256;61255;-73
2023/07/03 07:51:36;;;;;;;3.00;2.70;;;;;;;28.63;44.02;99718.38;105532;1254;63880;-73
2023/07/03 07:54:03;;;;;;;3.00;2.70;;;;;;;28.73;43.91;99716.36;105790;1254;61173;-73
2023/07/03 07:56:29;;;;;;;3.60;2.70;;;;;;;28.87;44.14;99718.86;105784;1253;61439;-72
2023/07/03 07:59:00;;;;;;;3.40;2.90;;;;;;;29.01;43.85;99717.20;106044;1254;65960;-73
2023/07/03 08:01:27;;;;;;;3.20;2.90;;;;;;;29.10;42.96;99719.99;106052;1254;61254;-71
2023/07/03 08:03:53;;;;;;;4.60;2.90;;;;;;;29.14;42.83;99722.41;105792;1254;64033;-74
2023/07/03 08:06:20;;;;;;;3.40;3.00;;;;;;;29.21;43.04;99720.13;105984;1253;61240;-73
2023/07/03 08:08:46;;;;;;;3.60;2.90;;;;;;;29.35;42.81;99719.81;105957;1254;61224;-73
2023/07/03 08:11:14;;;;;;;3.30;2.80;;;;;;;29.43;42.69;99721.32;105936;1254;66069;-72
2023/07/03 08:13:41;;;;;;;3.10;2.70;;;;;;;29.45;42.60;99719.98;105717;1254;61278;-72
2023/07/03 08:16:08;;;;;;;3.60;2.80;;;;;;;29.58;42.92;99722.11;105814;1256;62567;-73
2023/07/03 08:18:35;;;;;;;4.30;2.80;;;;;;;29.70;42.27;99723.66;105943;1254;61161;-72
2023/07/03 08:21:02;;;;;;;4.70;2.70;;;;;;;29.78;41.58;99719.62;105987;1254;61366;-72
2023/07/03 08:23:30;;;;;;;5.00;2.80;;;;;;;29.82;41.71;99721.33;105834;1256;66122;-73
2023/07/03 08:25:58;;;;;;;5.20;3.00;;;;;;;29.91;42.02;99724.22;105763;1254;61312;-73
2023/07/03 08:28:24;;;;;;;2.90;2.60;;;;;;;30.03;41.86;99725.70;105796;1254;63891;-73
2023/07/03 08:30:52;;;;;;;3.20;2.90;;;;;;;30.08;41.13;99724.96;105845;1254;61132;-73
2023/07/03 08:33:19;;;;;;;3.00;2.70;;;;;;;30.13;41.19;99725.60;105883;1254;61273;-73
2023/07/03 08:35:46;;;;;;;3.30;3.00;;;;;;;30.18;41.20;99726.82;105944;1256;66004;-73
2023/07/03 08:38:16;;;;;;;3.30;2.90;;;;;;;30.25;40.81;99727.98;106136;1254;61269;-72
2023/07/03 08:40:43;;;;;;;3.20;2.80;;;;;;;30.26;40.47;99727.34;105960;1254;63532;-72
2023/07/03 08:43:14;;;;;;;3.10;2.70;;;;;;;30.19;40.13;99727.86;106012;1256;61218;-72
2023/07/03 08:45:42;;;;;;;3.40;2.70;;;;;;;30.12;40.31;99729.23;105806;1252;61314;-72
2023/07/03 08:48:17;;;;;;;3.10;2.80;;;;;;;30.18;40.27;99725.95;106109;1254;65720;-72
2023/07/03 08:50:46;;;;;;;4.60;2.80;;;;;;;30.26;40.41;99726.64;105791;1257;62677;-72
2023/07/03 08:53:16;;;;;;;6.30;3.00;;;;;;;30.41;40.70;99726.25;105868;1253;64075;-72
2023/07/03 08:55:51;;;;;;;5.20;3.20;;;;;;;30.64;40.41;99722.55;105836;1256;61190;-72
2023/07/03 08:58:18;;;;;;;2.90;2.60;;;;;;;30.91;40.31;99725.61;105929;1253;61212;-72
2023/07/03 09:01:08;;;;;;;4.00;2.50;;;;;;;31.12;39.78;99724.80;105936;1254;65891;-73
2023/07/03 09:04:08;;;;;;;4.10;2.70;;;;;;;31.28;39.36;99724.52;106055;1254;61455;-73
2023/07/03 09:06:47;;;;;;;3.80;2.90;;;;;;;31.41;39.31;99727.55;105808;1252;63739;-73
2023/07/03 09:09:16;;;;;;;3.60;2.70;;;;;;;31.55;39.19;99725.83;105839;1254;61256;-72
2023/07/03 09:11:46;;;;;;;3.10;2.80;;;;;;;31.73;39.51;99729.19;106047;1254;61327;-72
2023/07/03 09:14:18;;;;;;;3.20;2.90;;;;;;;31.89;38.71;99730.92;105879;1254;64745;-72
2023/07/03 09:16:46;;;;;;;3.50;2.90;;;;;;;31.98;38.15;99731.21;105946;1254;61384;-73
2023/07/03 09:19:17;;;;;;;3.10;2.80;;;;;;;31.99;38.13;99737.11;105864;1254;64129;-73
2023/07/03 09:21:44;;;;;;;3.10;2.80;;;;;;;32.04;37.90;99739.40;105688;1254;61219;-72
2023/07/03 09:24:26;;;;;;;4.30;2.90;;;;;;;32.07;37.59;99737.86;105920;1254;61250;-73
2023/07/03 09:26:56;;;;;;;4.20;2.80;;;;;;;32.26;37.47;99738.34;106014;1252;66043;-72
2023/07/03 09:29:25;;;;;;;3.10;2.80;;;;;;;32.34;37.35;99735.86;106048;1253;61308;-72
2023/07/03 09:31:54;;;;;;;3.70;2.90;;;;;;;32.39;37.27;99731.56;105795;1254;62599;-72
2023/07/03 09:34:21;;;;;;;3.90;2.80;;;;;;;32.49;37.64;99732.06;106014;1254;61794;-73
2023/07/03 09:36:58;;;;;;;3.40;2.90;;;;;;;32.65;36.81;99732.30;105687;1255;61094;-73
2023/07/03 09:39:25;;;;;;;3.30;2.80;;;;;;;32.71;36.96;99729.52;105696;1256;65807;-73
2023/07/03 09:41:53;;;;;;;2.80;2.50;;;;;;;32.87;36.76;99731.24;105890;1256;61317;-73
2023/07/03 09:44:21;;;;;;;8.80;2.90;;;;;;;33.05;36.95;99728.20;106000;1254;63764;-72
2023/07/03 09:46:50;;;;;;;6.70;3.00;;;;;;;33.27;36.83;99726.77;105642;1254;61241;-73
2023/07/03 09:49:21;;;;;;;4.10;2.80;;;;;;;33.50;36.36;99726.19;105761;1253;61231;-73
2023/07/03 09:51:52;;;;;;;5.00;2.70;;;;;;;33.71;35.53;99727.09;105767;1254;66002;-73
2023/07/03 09:54:23;;;;;;;3.30;2.80;;;;;;;33.89;35.17;99735.89;105929;1254;61241;-73
2023/07/03 09:56:49;;;;;;;5.20;2.70;;;;;;;34.01;34.11;99733.95;105552;1257;62631;-73
2023/07/03 09:59:19;;;;;;;5.40;2.70;;;;;;;34.02;34.58;99730.70;105694;1254;61170;-74
2023/07/03 10:01:47;;;;;;;5.30;2.60;;;;;;;34.13;34.50;99729.96;105933;1254;61354;-74
2023/07/03 10:04:17;;;;;;;4.80;2.60;;;;;;;34.22;33.20;99729.58;105622;1254;66097;-73
2023/07/03 10:06:57;;;;;;;3.90;2.80;;;;;;;34.19;33.49;99726.28;105856;1254;61245;-74
2023/07/03 10:09:27;;;;;;;3.40;2.80;;;;;;;34.26;33.61;99730.89;105811;1254;64044;-74
2023/07/03 10:12:26;;;;;;;8.30;2.80;;;;;;;34.30;33.07;99729.09;105909;1254;61203;-73
2023/07/03 10:15:05;;;;;;;3.00;2.50;;;;;;;34.40;33.03;99727.06;105734;1254;61437;-74
2023/07/03 10:17:38;;;;;;;3.10;2.50;;;;;;;34.61;32.72;99726.45;105729;1254;66233;-74
2023/07/03 10:20:10;;;;;;;4.20;2.90;;;;;;;34.78;32.68;99721.31;105849;1254;61334;-72
2023/07/03 10:22:38;;;;;;;;;;;;;;;34.97;32.61;99720.21;105783;1253;63852;-72
2023/07/03 10:25:06;;;;;;;3.70;3.00;;;;;;;35.16;33.97;99724.89;105787;1256;61231;-75
2023/07/03 10:27:34;;;;;;;3.30;2.70;;;;;;;35.29;34.51;99725.94;105884;1254;61261;-73
2023/07/03 10:30:00;;;;;;;4.00;2.90;;;;;;;35.37;34.42;99723.50;105851;1256;65957;-73
2023/07/03 10:32:28;;;;;;;4.60;3.00;;;;;;;35.39;34.83;99719.69;105803;1254;62691;-73
2023/07/03 10:35:18;;;;;;;4.90;2.70;;;;;;;35.49;35.02;99721.05;105753;1254;64016;-74
2023/07/03 10:37:59;;;;;;;4.30;2.60;;;;;;;35.66;34.90;99716.06;105936;1256;61235;-73
2023/07/03 10:40:49;;;;;;;4.10;3.00;;;;;;;35.71;34.59;99715.73;105699;1254;61250;-74
2023/07/03 10:43:16;;;;;;;6.20;3.00;;;;;;;35.80;34.66;99717.49;105630;1254;67865;-73
2023/07/03 10:45:43;;;;;;;3.90;3.00;;;;;;;35.91;34.02;99712.90;105548;1254;61301;-74
2023/07/03 10:48:17;;;;;;;7.60;2.90;;;;;;;36.01;33.97;99711.17;105684;1254;64127;-73
2023/07/03 10:50:52;;;;;;;3.30;2.90;;;;;;;36.19;34.11;99710.56;105817;1254;61166;-73
2023/07/03 10:53:28;;;;;;;4.40;3.20;;;;;;;36.37;33.86;99705.52;105690;1253;61269;-74
2023/07/03 10:56:00;;;;;;;3.60;3.00;;;;;;;36.57;33.89;99709.27;105581;1259;65731;-74
2023/07/03 10:58:43;;;;;;;3.30;2.90;;;;;;;36.80;33.56;99710.31;105856;1252;61263;-73
2023/07/03 11:01:16;;;;;;;4.00;3.10;;;;;;;37.01;33.27;99708.52;105841;1254;65158;-74
2023/07/03 11:03:53;;;;;;;3.20;2.90;;;;;;;37.07;32.58;99702.23;106030;1256;61212;-74
2023/07/03 11:06:57;;;;;;;5.60;3.10;;;;;;;37.03;32.24;99701.23;105990;1254;61240;-72
2023/07/03 11:09:44;;;;;;;4.90;3.00;;;;;;;37.07;32.13;99696.86;105803;1254;66590;-73
2023/07/03 11:12:29;;;;;;;3.40;2.90;;;;;;;37.12;32.37;99694.13;105934;1254;61246;-73
2023/07/03 11:15:21;;;;;;;3.60;2.80;;;;;;;37.08;32.41;99692.68;105726;1254;63976;-73
2023/07/03 11:17:51;;;;;;;3.70;3.00;;;;;;;37.00;32.24;99695.93;105953;1252;61398;-73
2023/07/03 11:20:35;;;;;;;3.10;2.80;;;;;;;36.72;31.82;99695.64;106116;1252;61343;-73
2023/07/03 11:23:16;;;;;;;3.40;3.00;;;;;;;36.33;32.29;99689.31;105852;1252;64958;-74
2023/07/03 11:25:46;;;;;;;3.40;3.10;;;;;;;36.18;31.94;99686.22;105824;1254;61273;-74
2023/07/03 11:28:35;;;;;;;3.80;3.00;;;;;;;36.14;32.72;99691.81;105844;1254;63931;-73
2023/07/03 11:31:02;;;;;;;3.70;3.40;;;;;;;36.23;33.16;99689.48;105879;1254;61212;-73
2023/07/03 11:33:30;;;;;;;4.90;3.50;;;;;;;36.37;32.84;99687.36;105944;1256;61234;-73